createdAt,value
2017-11-08T00:00:16.414Z,8.52
2017-11-08T00:01:14.959Z,8.51
2017-11-08T00:02:14.959Z,8.49
2017-11-08T00:03:15.282Z,8.48
2017-11-08T00:04:15.384Z,8.51
2017-11-08T00:05:16.670Z,8.53
2017-11-08T00:06:15.000Z,8.53
2017-11-08T00:07:15.272Z,8.6
2017-11-08T00:08:14.930Z,8.56
2017-11-08T00:09:14.937Z,8.52
2017-11-08T00:10:16.321Z,8.53
2017-11-08T00:11:14.600Z,8.6
2017-11-08T00:12:14.908Z,8.51
2017-11-08T00:13:15.258Z,8.58
2017-11-08T00:14:14.894Z,8.58
2017-11-08T00:15:16.336Z,8.61
2017-11-08T00:16:14.891Z,8.63
2017-11-08T00:17:15.263Z,8.58
2017-11-08T00:18:14.878Z,8.56
2017-11-08T00:19:14.884Z,8.52
2017-11-08T00:20:17.227Z,8.61
2017-11-08T00:21:15.207Z,8.48
2017-11-08T00:22:14.865Z,8.55
2017-11-08T00:23:15.204Z,8.46
2017-11-08T00:24:15.194Z,8.42
2017-11-08T00:25:15.290Z,8.42
2017-11-08T00:26:14.840Z,8.41
2017-11-08T00:27:15.207Z,8.46
2017-11-08T00:28:14.845Z,8.38
2017-11-08T00:29:14.617Z,8.41
2017-11-08T00:30:16.554Z,8.45
2017-11-08T00:31:14.499Z,8.33
2017-11-08T00:32:14.488Z,8.3
2017-11-08T00:33:14.814Z,8.28
2017-11-08T00:34:14.820Z,8.34
2017-11-08T00:35:16.100Z,8.23
2017-11-08T00:36:14.793Z,8.19
2017-11-08T00:37:15.121Z,8.24
2017-11-08T00:38:14.800Z,8.16
2017-11-08T00:39:15.139Z,8.24
2017-11-08T00:40:16.463Z,8.2
2017-11-08T00:41:15.115Z,8.16
2017-11-08T00:42:14.766Z,8.24
2017-11-08T00:43:15.096Z,8.24
2017-11-08T00:44:14.761Z,8.15
2017-11-08T00:45:15.801Z,8.19
2017-11-08T00:46:14.771Z,8.15
2017-11-08T00:47:15.069Z,8.18
2017-11-08T00:48:14.733Z,8.2
2017-11-08T00:49:14.747Z,8.24
2017-11-08T00:50:16.006Z,8.3
2017-11-08T00:51:14.724Z,8.24
2017-11-08T00:52:14.404Z,8.2
2017-11-08T00:53:14.720Z,8.3
2017-11-08T00:54:14.701Z,8.27
2017-11-08T00:55:16.198Z,8.3
2017-11-08T00:56:14.698Z,8.24
2017-11-08T00:57:14.367Z,8.18
2017-11-08T00:58:14.700Z,8.19
2017-11-08T00:59:14.684Z,8.19
2017-11-08T01:00:16.336Z,8.19
2017-11-08T01:01:15.796Z,8.2
2017-11-08T01:02:14.661Z,8.2
2017-11-08T01:03:14.664Z,8.2
2017-11-08T01:04:14.336Z,8.24
2017-11-08T01:05:15.785Z,8.27
2017-11-08T01:06:14.643Z,8.15
2017-11-08T01:07:14.965Z,8.26
2017-11-08T01:08:14.974Z,8.18
2017-11-08T01:09:14.623Z,8.24
2017-11-08T01:10:15.817Z,8.26
2017-11-08T01:11:14.624Z,8.23
2017-11-08T01:12:14.930Z,8.23
2017-11-08T01:13:14.604Z,8.2
2017-11-08T01:14:14.922Z,8.24
2017-11-08T01:15:15.940Z,8.3
2017-11-08T01:16:14.587Z,8.28
2017-11-08T01:17:14.606Z,8.18
2017-11-08T01:18:14.579Z,8.2
2017-11-08T01:19:14.577Z,8.23
2017-11-08T01:20:16.272Z,8.2
2017-11-08T01:21:14.569Z,8.2
2017-11-08T01:22:14.567Z,8.16
2017-11-08T01:23:14.230Z,8.15
2017-11-08T01:24:14.636Z,8.15
2017-11-08T01:25:15.459Z,8.18
2017-11-08T01:26:14.539Z,8.19
2017-11-08T01:27:14.859Z,8.18
2017-11-08T01:28:14.525Z,8.2
2017-11-08T01:29:14.846Z,8.2
2017-11-08T01:30:15.853Z,8.19
2017-11-08T01:31:14.839Z,8.23
2017-11-08T01:32:14.523Z,8.16
2017-11-08T01:33:14.177Z,8.12
2017-11-08T01:34:14.496Z,8.15
2017-11-08T01:35:15.061Z,8.23
2017-11-08T01:36:14.811Z,8.18
2017-11-08T01:37:14.478Z,8.15
2017-11-08T01:38:14.482Z,8.15
2017-11-08T01:39:14.144Z,8.23
2017-11-08T01:40:16.411Z,8.16
2017-11-08T01:41:14.468Z,8.18
2017-11-08T01:42:14.774Z,8.13
2017-11-08T01:43:14.444Z,8.2
2017-11-08T01:44:14.778Z,8.19
2017-11-08T01:45:16.272Z,8.23
2017-11-08T01:46:14.756Z,8.27
2017-11-08T01:47:14.114Z,8.2
2017-11-08T01:48:14.429Z,8.2
2017-11-08T01:49:14.738Z,8.1
2017-11-08T01:50:15.626Z,8.26
2017-11-08T01:51:14.734Z,8.2
2017-11-08T01:52:14.413Z,8.24
2017-11-08T01:53:14.084Z,8.18
2017-11-08T01:54:14.395Z,8.15
2017-11-08T01:55:15.452Z,8.16
2017-11-08T01:56:14.709Z,8.2
2017-11-08T01:57:14.389Z,8.19
2017-11-08T01:58:14.374Z,8.18
2017-11-08T01:59:14.688Z,8.16
2017-11-08T02:00:15.178Z,8.2
2017-11-08T02:01:16.437Z,8.16
2017-11-08T02:02:14.678Z,8.23
2017-11-08T02:03:14.368Z,8.2
2017-11-08T02:04:14.047Z,8.19
2017-11-08T02:05:15.717Z,8.16
2017-11-08T02:06:14.346Z,8.19
2017-11-08T02:07:14.654Z,8.24
2017-11-08T02:08:14.046Z,8.26
2017-11-08T02:09:14.639Z,8.18
2017-11-08T02:10:16.264Z,8.19
2017-11-08T02:11:14.643Z,8.3
2017-11-08T02:12:13.995Z,8.23
2017-11-08T02:13:14.296Z,8.15
2017-11-08T02:14:14.619Z,8.16
2017-11-08T02:15:15.985Z,8.16
2017-11-08T02:16:15.114Z,8.18
2017-11-08T02:17:14.602Z,8.12
2017-11-08T02:18:14.271Z,8.2
2017-11-08T02:19:14.280Z,8.19
2017-11-08T02:20:15.375Z,8.16
2017-11-08T02:21:14.282Z,8.18
2017-11-08T02:22:14.281Z,8.16
2017-11-08T02:23:14.248Z,8.19
2017-11-08T02:24:13.932Z,8.2
2017-11-08T02:25:15.365Z,8.2
2017-11-08T02:26:14.558Z,8.24
2017-11-08T02:27:13.919Z,8.27
2017-11-08T02:28:14.544Z,8.31
2017-11-08T02:29:14.541Z,8.19
2017-11-08T02:30:15.386Z,8.23
2017-11-08T02:31:14.215Z,8.27
2017-11-08T02:32:13.883Z,8.2
2017-11-08T02:33:14.196Z,8.15
2017-11-08T02:34:13.883Z,8.16
2017-11-08T02:35:15.575Z,8.2
2017-11-08T02:36:14.511Z,8.15
2017-11-08T02:37:14.178Z,8.15
2017-11-08T02:38:14.502Z,8.15
2017-11-08T02:39:14.165Z,8.16
2017-11-08T02:40:15.688Z,8.19
2017-11-08T02:41:14.160Z,8.13
2017-11-08T02:42:14.167Z,8.2
2017-11-08T02:43:14.504Z,8.18
2017-11-08T02:44:14.467Z,8.12
2017-11-08T02:45:15.247Z,8.19
2017-11-08T02:46:14.464Z,8.15
2017-11-08T02:47:14.129Z,8.16
2017-11-08T02:48:14.141Z,8.15
2017-11-08T02:49:14.119Z,8.18
2017-11-08T02:50:15.175Z,8.27
2017-11-08T02:51:14.476Z,8.2
2017-11-08T02:52:14.101Z,8.15
2017-11-08T02:53:14.104Z,8.06
2017-11-08T02:54:14.456Z,8.18
2017-11-08T02:55:14.932Z,8.18
2017-11-08T02:56:14.421Z,8.19
2017-11-08T02:57:13.753Z,8.18
2017-11-08T02:58:14.091Z,8.16
2017-11-08T02:59:14.413Z,8.24
2017-11-08T03:00:15.636Z,8.2
2017-11-08T03:01:14.399Z,8.13
2017-11-08T03:02:15.171Z,8.26
2017-11-08T03:03:14.043Z,8.24
2017-11-08T03:04:14.365Z,8.23
2017-11-08T03:05:15.097Z,8.15
2017-11-08T03:06:14.038Z,8.18
2017-11-08T03:07:14.029Z,8.16
2017-11-08T03:08:13.828Z,8.27
2017-11-08T03:09:14.368Z,8.16
2017-11-08T03:10:15.006Z,8.19
2017-11-08T03:11:14.329Z,8.13
2017-11-08T03:12:14.004Z,8.13
2017-11-08T03:13:14.326Z,8.05
2017-11-08T03:14:14.315Z,8.19
2017-11-08T03:15:15.445Z,8.13
2017-11-08T03:16:13.985Z,8.16
2017-11-08T03:17:14.037Z,8.05
2017-11-08T03:18:13.971Z,8.2
2017-11-08T03:19:13.647Z,8.06
2017-11-08T03:20:15.230Z,8.15
2017-11-08T03:21:13.975Z,8.12
2017-11-08T03:22:13.952Z,8.06
2017-11-08T03:23:14.274Z,8.15
2017-11-08T03:24:13.946Z,8.08
2017-11-08T03:25:15.210Z,8.18
2017-11-08T03:26:13.943Z,8.06
2017-11-08T03:27:13.935Z,8.08
2017-11-08T03:28:13.929Z,8.13
2017-11-08T03:29:14.244Z,8.13
2017-11-08T03:30:15.384Z,8.06
2017-11-08T03:31:13.921Z,8.08
2017-11-08T03:32:15.797Z,8.06
2017-11-08T03:33:13.581Z,8.05
2017-11-08T03:34:13.912Z,8.03
2017-11-08T03:35:14.738Z,7.97
2017-11-08T03:36:13.881Z,8.01
2017-11-08T03:37:14.202Z,7.98
2017-11-08T03:38:13.878Z,8.09
2017-11-08T03:39:14.185Z,8.01
2017-11-08T03:40:15.345Z,7.91
2017-11-08T03:41:14.177Z,7.97
2017-11-08T03:42:14.170Z,7.98
2017-11-08T03:43:13.844Z,8.09
2017-11-08T03:44:13.835Z,8.05
2017-11-08T03:45:15.202Z,7.93
2017-11-08T03:46:14.146Z,8
2017-11-08T03:47:13.827Z,7.97
2017-11-08T03:48:13.492Z,7.91
2017-11-08T03:49:13.816Z,8
2017-11-08T03:50:15.363Z,7.97
2017-11-08T03:51:13.796Z,8
2017-11-08T03:52:14.114Z,8.12
2017-11-08T03:53:14.118Z,8.06
2017-11-08T03:54:13.781Z,8.06
2017-11-08T03:55:15.155Z,8.05
2017-11-08T03:56:13.776Z,8.1
2017-11-08T03:57:14.087Z,8.1
2017-11-08T03:58:14.085Z,8.05
2017-11-08T03:59:14.086Z,7.98
2017-11-08T04:00:14.894Z,7.98
2017-11-08T04:01:13.743Z,7.97
2017-11-08T04:02:13.740Z,7.98
2017-11-08T04:03:14.054Z,8.05
2017-11-08T04:04:13.726Z,8.01
2017-11-08T04:05:15.697Z,7.98
2017-11-08T04:06:13.718Z,8.08
2017-11-08T04:07:14.048Z,8.1
2017-11-08T04:08:13.706Z,8.1
2017-11-08T04:09:14.039Z,8.01
2017-11-08T04:10:15.252Z,8.08
2017-11-08T04:11:14.027Z,8.08
2017-11-08T04:12:13.686Z,8.05
2017-11-08T04:13:13.679Z,8.03
2017-11-08T04:14:13.683Z,8
2017-11-08T04:15:15.125Z,8.08
2017-11-08T04:16:13.661Z,8.1
2017-11-08T04:17:13.666Z,8.03
2017-11-08T04:18:13.651Z,8.06
2017-11-08T04:19:13.676Z,8.08
2017-11-08T04:20:14.808Z,8.05
2017-11-08T04:21:13.646Z,8.09
2017-11-08T04:22:13.960Z,8.15
2017-11-08T04:23:13.640Z,8.18
2017-11-08T04:24:13.645Z,8.18
2017-11-08T04:25:14.641Z,8.15
2017-11-08T04:26:13.289Z,8.06
2017-11-08T04:27:13.625Z,8.15
2017-11-08T04:28:13.937Z,8.13
2017-11-08T04:29:13.940Z,8.19
2017-11-08T04:30:15.607Z,8.12
2017-11-08T04:31:13.903Z,8.19
2017-11-08T04:32:13.907Z,8.16
2017-11-08T04:33:15.799Z,8.13
2017-11-08T04:34:13.900Z,8.19
2017-11-08T04:35:15.333Z,8.06
2017-11-08T04:36:13.883Z,8.08
2017-11-08T04:37:13.880Z,8.09
2017-11-08T04:38:13.868Z,7.95
2017-11-08T04:39:13.542Z,8.01
2017-11-08T04:40:14.159Z,8
2017-11-08T04:41:13.530Z,8
2017-11-08T04:42:13.204Z,8.03
2017-11-08T04:43:13.213Z,8.09
2017-11-08T04:44:13.836Z,8.05
2017-11-08T04:45:14.661Z,8.08
2017-11-08T04:46:13.827Z,8.01
2017-11-08T04:47:13.176Z,8.1
2017-11-08T04:48:13.871Z,8.12
2017-11-08T04:49:13.483Z,8.03
2017-11-08T04:50:15.014Z,8
2017-11-08T04:51:13.800Z,8.1
2017-11-08T04:52:13.795Z,8.06
2017-11-08T04:53:13.789Z,8.06
2017-11-08T04:54:13.473Z,7.98
2017-11-08T04:55:14.801Z,8.2
2017-11-08T04:56:13.459Z,8.08
2017-11-08T04:57:13.480Z,8.03
2017-11-08T04:58:13.762Z,8.08
2017-11-08T04:59:13.449Z,8.09
2017-11-08T05:00:15.371Z,8.05
2017-11-08T05:01:13.758Z,8.16
2017-11-08T05:02:13.419Z,8.18
2017-11-08T05:03:15.013Z,8.1
2017-11-08T05:04:13.729Z,8.18
2017-11-08T05:05:14.659Z,8.13
2017-11-08T05:06:13.716Z,8.19
2017-11-08T05:07:13.722Z,8.1
2017-11-08T05:08:13.393Z,8.18
2017-11-08T05:09:13.387Z,8.16
2017-11-08T05:10:14.726Z,8.24
2017-11-08T05:11:13.689Z,8.27
2017-11-08T05:12:13.371Z,8.15
2017-11-08T05:13:13.365Z,8.18
2017-11-08T05:14:13.697Z,8.15
2017-11-08T05:15:14.644Z,8.13
2017-11-08T05:16:13.677Z,8.18
2017-11-08T05:17:13.358Z,8.19
2017-11-08T05:18:13.347Z,8.19
2017-11-08T05:19:13.650Z,8.13
2017-11-08T05:20:15.119Z,8.18
2017-11-08T05:21:13.641Z,8.18
2017-11-08T05:22:13.645Z,8.13
2017-11-08T05:23:13.326Z,8.16
2017-11-08T05:24:13.634Z,8.26
2017-11-08T05:25:14.748Z,8.16
2017-11-08T05:26:13.315Z,8.09
2017-11-08T05:27:12.968Z,8.16
2017-11-08T05:28:13.289Z,8.15
2017-11-08T05:29:13.294Z,8.18
2017-11-08T05:30:14.816Z,8.19
2017-11-08T05:31:12.950Z,8.15
2017-11-08T05:32:13.610Z,8.08
2017-11-08T05:33:12.934Z,8.18
2017-11-08T05:34:13.256Z,8.2
2017-11-08T05:35:15.328Z,8.18
2017-11-08T05:36:13.272Z,8.23
2017-11-08T05:37:13.564Z,8.2
2017-11-08T05:38:13.242Z,8.12
2017-11-08T05:39:13.231Z,8.19
2017-11-08T05:40:15.339Z,8.16
2017-11-08T05:41:13.549Z,8.18
2017-11-08T05:42:12.890Z,8.13
2017-11-08T05:43:13.551Z,8.16
2017-11-08T05:44:13.199Z,8.12
2017-11-08T05:45:14.382Z,8.06
2017-11-08T05:46:13.519Z,8.13
2017-11-08T05:47:13.520Z,8.2
2017-11-08T05:48:13.202Z,8.18
2017-11-08T05:49:13.174Z,8.18
2017-11-08T05:50:15.042Z,8.1
2017-11-08T05:51:13.495Z,8.06
2017-11-08T05:52:13.494Z,8.16
2017-11-08T05:53:13.204Z,8.16
2017-11-08T05:54:13.472Z,8.23
2017-11-08T05:55:13.682Z,8.18
2017-11-08T05:56:13.161Z,8.19
2017-11-08T05:57:13.465Z,8.19
2017-11-08T05:58:13.453Z,8.16
2017-11-08T05:59:13.132Z,8.16
2017-11-08T06:00:14.891Z,8.15
2017-11-08T06:01:13.438Z,8.15
2017-11-08T06:02:13.432Z,8.18
2017-11-08T06:03:13.433Z,8.09
2017-11-08T06:04:13.417Z,8.16
2017-11-08T06:05:14.255Z,8.18
2017-11-08T06:06:13.423Z,8.16
2017-11-08T06:07:12.793Z,8.19
2017-11-08T06:08:12.757Z,8.13
2017-11-08T06:09:13.421Z,8.12
2017-11-08T06:10:14.735Z,8.19
2017-11-08T06:11:13.081Z,8.2
2017-11-08T06:12:13.379Z,8.13
2017-11-08T06:13:13.058Z,8.13
2017-11-08T06:14:12.729Z,8.18
2017-11-08T06:15:15.035Z,8.2
2017-11-08T06:16:13.364Z,8.15
2017-11-08T06:17:13.367Z,8.15
2017-11-08T06:18:13.367Z,8.23
2017-11-08T06:19:13.038Z,8.2
2017-11-08T06:20:14.548Z,8.1
2017-11-08T06:21:13.338Z,8.15
2017-11-08T06:22:12.683Z,8.16
2017-11-08T06:23:12.998Z,8.15
2017-11-08T06:24:13.322Z,8.15
2017-11-08T06:25:14.639Z,8.16
2017-11-08T06:26:13.323Z,8.2
2017-11-08T06:27:12.988Z,8.15
2017-11-08T06:28:12.978Z,8.26
2017-11-08T06:29:12.970Z,8.15
2017-11-08T06:30:13.900Z,8.19
2017-11-08T06:31:13.300Z,8.16
2017-11-08T06:32:13.292Z,8.18
2017-11-08T06:33:13.271Z,8.16
2017-11-08T06:34:13.268Z,8.16
2017-11-08T06:35:14.305Z,8.13
2017-11-08T06:36:13.267Z,8.15
2017-11-08T06:37:13.249Z,8.06
2017-11-08T06:38:13.244Z,8.01
2017-11-08T06:39:12.920Z,8.06
2017-11-08T06:40:13.835Z,8.03
2017-11-08T06:41:12.908Z,8.09
2017-11-08T06:42:12.903Z,8.05
2017-11-08T06:43:13.216Z,8.09
2017-11-08T06:44:13.229Z,8.09
2017-11-08T06:45:13.941Z,8.1
2017-11-08T06:46:12.884Z,8
2017-11-08T06:47:12.889Z,8.03
2017-11-08T06:48:12.874Z,8.08
2017-11-08T06:49:14.001Z,8.09
2017-11-08T06:50:14.248Z,8.09
2017-11-08T06:51:12.855Z,8.1
2017-11-08T06:52:12.532Z,8.08
2017-11-08T06:53:13.179Z,8.05
2017-11-08T06:54:13.159Z,8.03
2017-11-08T06:55:13.946Z,8.05
2017-11-08T06:56:12.829Z,8.18
2017-11-08T06:57:12.828Z,8.1
2017-11-08T06:58:13.143Z,8.2
2017-11-08T06:59:12.819Z,8.16
2017-11-08T07:00:14.234Z,8.05
2017-11-08T07:01:13.126Z,8.05
2017-11-08T07:02:12.493Z,8.16
2017-11-08T07:03:13.115Z,8.23
2017-11-08T07:04:13.114Z,8.23
2017-11-08T07:05:14.493Z,8.19
2017-11-08T07:06:13.102Z,8.16
2017-11-08T07:07:13.107Z,8.23
2017-11-08T07:08:12.764Z,8.27
2017-11-08T07:09:12.438Z,8.24
2017-11-08T07:10:14.077Z,8.2
2017-11-08T07:11:13.086Z,8.19
2017-11-08T07:12:12.752Z,8.28
2017-11-08T07:13:12.761Z,8.31
2017-11-08T07:14:12.751Z,8.34
2017-11-08T07:15:14.184Z,8.31
2017-11-08T07:16:13.050Z,8.33
2017-11-08T07:17:12.407Z,8.28
2017-11-08T07:18:13.046Z,8.34
2017-11-08T07:19:14.574Z,8.37
2017-11-08T07:20:13.304Z,8.36
2017-11-08T07:21:12.701Z,8.33
2017-11-08T07:22:12.703Z,8.34
2017-11-08T07:23:13.018Z,8.41
2017-11-08T07:24:12.684Z,8.27
2017-11-08T07:25:14.016Z,8.34
2017-11-08T07:26:13.006Z,8.31
2017-11-08T07:27:12.999Z,8.38
2017-11-08T07:28:12.662Z,8.44
2017-11-08T07:29:12.986Z,8.31
2017-11-08T07:30:13.696Z,8.38
2017-11-08T07:31:12.661Z,8.41
2017-11-08T07:32:12.647Z,8.41
2017-11-08T07:33:12.330Z,8.41
2017-11-08T07:34:12.962Z,8.36
2017-11-08T07:35:13.469Z,8.38
2017-11-08T07:36:12.643Z,8.37
2017-11-08T07:37:12.620Z,8.37
2017-11-08T07:38:12.938Z,8.42
2017-11-08T07:39:12.936Z,8.38
2017-11-08T07:40:14.098Z,8.41
2017-11-08T07:41:12.922Z,8.38
2017-11-08T07:42:12.600Z,8.41
2017-11-08T07:43:12.922Z,8.41
2017-11-08T07:44:12.595Z,8.41
2017-11-08T07:45:14.228Z,8.42
2017-11-08T07:46:12.906Z,8.42
2017-11-08T07:47:12.585Z,8.42
2017-11-08T07:48:12.567Z,8.44
2017-11-08T07:49:13.868Z,8.41
2017-11-08T07:50:13.209Z,8.41
2017-11-08T07:51:12.873Z,8.45
2017-11-08T07:52:12.550Z,8.44
2017-11-08T07:53:12.544Z,8.42
2017-11-08T07:54:12.544Z,8.41
2017-11-08T07:55:13.909Z,8.41
2017-11-08T07:56:12.897Z,8.42
2017-11-08T07:57:12.204Z,8.42
2017-11-08T07:58:12.834Z,8.52
2017-11-08T07:59:12.850Z,8.41
2017-11-08T08:00:12.990Z,8.38
2017-11-08T08:01:12.202Z,8.38
2017-11-08T08:02:12.813Z,8.38
2017-11-08T08:03:12.821Z,8.49
2017-11-08T08:04:12.487Z,8.45
2017-11-08T08:05:14.407Z,8.46
2017-11-08T08:06:12.166Z,8.52
2017-11-08T08:07:12.472Z,8.42
2017-11-08T08:08:12.486Z,8.55
2017-11-08T08:09:12.786Z,8.53
2017-11-08T08:10:13.496Z,8.51
2017-11-08T08:11:12.454Z,8.56
2017-11-08T08:12:12.769Z,8.58
2017-11-08T08:13:12.448Z,8.53
2017-11-08T08:14:12.440Z,8.63
2017-11-08T08:15:13.687Z,8.55
2017-11-08T08:16:12.143Z,8.49
2017-11-08T08:17:12.750Z,8.58
2017-11-08T08:18:12.416Z,8.58
2017-11-08T08:19:12.418Z,8.55
2017-11-08T08:20:14.217Z,8.56
2017-11-08T08:21:12.729Z,8.58
2017-11-08T08:22:12.720Z,8.58
2017-11-08T08:23:12.071Z,8.49
2017-11-08T08:24:12.725Z,8.6
2017-11-08T08:25:12.843Z,8.6
2017-11-08T08:26:12.445Z,8.63
2017-11-08T08:27:12.446Z,8.6
2017-11-08T08:28:12.693Z,8.52
2017-11-08T08:29:12.366Z,8.53
2017-11-08T08:30:14.306Z,8.53
2017-11-08T08:31:12.751Z,8.51
2017-11-08T08:32:12.759Z,8.49
2017-11-08T08:33:12.668Z,8.51
2017-11-08T08:34:12.666Z,8.55
2017-11-08T08:35:13.653Z,8.55
2017-11-08T08:36:12.331Z,8.49
2017-11-08T08:37:12.327Z,8.49
2017-11-08T08:38:12.322Z,8.37
2017-11-08T08:39:12.647Z,8.45
2017-11-08T08:40:13.849Z,8.46
2017-11-08T08:41:12.314Z,8.38
2017-11-08T08:42:12.652Z,8.49
2017-11-08T08:43:12.621Z,8.37
2017-11-08T08:44:12.291Z,8.45
2017-11-08T08:45:12.900Z,8.49
2017-11-08T08:46:12.287Z,8.49
2017-11-08T08:47:12.604Z,8.49
2017-11-08T08:48:11.951Z,8.46
2017-11-08T08:49:12.589Z,8.49
2017-11-08T08:50:13.555Z,8.51
2017-11-08T08:51:12.272Z,8.56
2017-11-08T08:52:12.266Z,8.53
2017-11-08T08:53:12.567Z,8.58
2017-11-08T08:54:11.923Z,8.61
2017-11-08T08:55:12.888Z,8.53
2017-11-08T08:56:12.564Z,8.61
2017-11-08T08:57:12.241Z,8.61
2017-11-08T08:58:12.543Z,8.55
2017-11-08T08:59:12.544Z,8.55
2017-11-08T09:00:13.328Z,8.63
2017-11-08T09:01:12.533Z,8.66
2017-11-08T09:02:12.222Z,8.71
2017-11-08T09:03:12.537Z,8.69
2017-11-08T09:04:12.518Z,8.71
2017-11-08T09:05:13.182Z,8.74
2017-11-08T09:06:12.517Z,8.74
2017-11-08T09:07:11.859Z,8.78
2017-11-08T09:08:12.503Z,8.87
2017-11-08T09:09:12.182Z,8.82
2017-11-08T09:10:13.454Z,8.84
2017-11-08T09:11:12.489Z,8.89
2017-11-08T09:12:11.836Z,8.85
2017-11-08T09:13:12.168Z,8.76
2017-11-08T09:14:12.165Z,8.79
2017-11-08T09:15:13.037Z,8.89
2017-11-08T09:16:12.170Z,8.94
2017-11-08T09:17:12.136Z,8.91
2017-11-08T09:18:12.131Z,8.91
2017-11-08T09:19:12.450Z,8.87
2017-11-08T09:20:12.960Z,8.85
2017-11-08T09:21:13.240Z,8.89
2017-11-08T09:22:12.441Z,8.88
2017-11-08T09:23:12.435Z,8.88
2017-11-08T09:24:12.107Z,8.89
2017-11-08T09:25:13.720Z,8.88
2017-11-08T09:26:12.420Z,8.87
2017-11-08T09:27:12.414Z,8.88
2017-11-08T09:28:12.410Z,8.91
2017-11-08T09:29:12.411Z,8.89
2017-11-08T09:30:13.237Z,8.99
2017-11-08T09:31:12.072Z,8.87
2017-11-08T09:32:12.395Z,8.95
2017-11-08T09:33:12.395Z,8.88
2017-11-08T09:34:12.064Z,8.89
2017-11-08T09:35:13.282Z,8.91
2017-11-08T09:36:12.372Z,8.91
2017-11-08T09:37:12.368Z,8.85
2017-11-08T09:38:12.358Z,8.87
2017-11-08T09:39:12.043Z,8.88
2017-11-08T09:40:12.929Z,8.94
2017-11-08T09:41:11.731Z,8.97
2017-11-08T09:42:12.028Z,8.97
2017-11-08T09:43:12.023Z,8.97
2017-11-08T09:44:12.014Z,9
2017-11-08T09:45:13.723Z,9.18
2017-11-08T09:46:11.701Z,9.11
2017-11-08T09:47:11.683Z,9.11
2017-11-08T09:48:11.689Z,9.18
2017-11-08T09:49:12.315Z,9.14
2017-11-08T09:50:13.156Z,9.25
2017-11-08T09:51:13.124Z,9.14
2017-11-08T09:52:12.323Z,9.13
2017-11-08T09:53:11.974Z,9.32
2017-11-08T09:54:11.973Z,9.26
2017-11-08T09:55:12.773Z,9.29
2017-11-08T09:56:12.292Z,9.31
2017-11-08T09:57:12.295Z,9.37
2017-11-08T09:58:12.283Z,9.36
2017-11-08T09:59:11.956Z,9.48
2017-11-08T10:00:13.579Z,9.41
2017-11-08T10:01:11.944Z,9.51
2017-11-08T10:02:12.285Z,9.55
2017-11-08T10:03:11.937Z,9.55
2017-11-08T10:04:11.939Z,9.58
2017-11-08T10:05:12.850Z,9.5
2017-11-08T10:06:11.930Z,9.56
2017-11-08T10:07:12.357Z,9.58
2017-11-08T10:08:11.963Z,9.48
2017-11-08T10:09:11.978Z,9.56
2017-11-08T10:10:13.201Z,9.51
2017-11-08T10:11:11.930Z,9.48
2017-11-08T10:12:11.916Z,9.43
2017-11-08T10:13:12.271Z,9.32
2017-11-08T10:14:11.925Z,9.36
2017-11-08T10:15:13.696Z,9.29
2017-11-08T10:16:12.210Z,9.32
2017-11-08T10:17:12.207Z,9.26
2017-11-08T10:18:12.201Z,9.32
2017-11-08T10:19:11.883Z,9.29
2017-11-08T10:20:13.007Z,9.31
2017-11-08T10:21:12.276Z,9.32
2017-11-08T10:22:11.878Z,9.32
2017-11-08T10:23:12.176Z,9.39
2017-11-08T10:24:12.174Z,9.32
2017-11-08T10:25:12.583Z,9.32
2017-11-08T10:26:12.206Z,9.26
2017-11-08T10:27:12.158Z,9.29
2017-11-08T10:28:11.838Z,9.34
2017-11-08T10:29:12.163Z,9.32
2017-11-08T10:30:12.755Z,9.26
2017-11-08T10:31:12.148Z,9.29
2017-11-08T10:32:12.142Z,9.34
2017-11-08T10:33:11.827Z,9.36
2017-11-08T10:34:12.146Z,9.32
2017-11-08T10:35:12.784Z,9.31
2017-11-08T10:36:12.129Z,9.37
2017-11-08T10:37:12.137Z,9.47
2017-11-08T10:38:11.477Z,9.36
2017-11-08T10:39:11.809Z,9.37
2017-11-08T10:40:12.353Z,9.47
2017-11-08T10:41:12.119Z,9.46
2017-11-08T10:42:12.078Z,9.54
2017-11-08T10:43:12.070Z,9.56
2017-11-08T10:44:11.748Z,9.51
2017-11-08T10:45:12.846Z,9.55
2017-11-08T10:46:11.745Z,9.54
2017-11-08T10:47:11.406Z,9.56
2017-11-08T10:48:11.398Z,9.5
2017-11-08T10:49:12.052Z,9.55
2017-11-08T10:50:12.755Z,9.58
2017-11-08T10:51:11.722Z,9.5
2017-11-08T10:52:11.712Z,9.55
2017-11-08T10:53:12.037Z,9.43
2017-11-08T10:54:12.026Z,9.47
2017-11-08T10:55:12.225Z,9.37
2017-11-08T10:56:11.701Z,9.28
2017-11-08T10:57:11.704Z,9.36
2017-11-08T10:58:11.703Z,9.34
2017-11-08T10:59:11.715Z,9.29
2017-11-08T11:00:12.140Z,9.13
2017-11-08T11:01:11.701Z,9.19
2017-11-08T11:02:11.683Z,9.16
2017-11-08T11:03:11.685Z,9
2017-11-08T11:04:11.675Z,8.99
2017-11-08T11:05:13.031Z,8.94
2017-11-08T11:06:11.990Z,8.94
2017-11-08T11:07:11.659Z,8.94
2017-11-08T11:08:11.967Z,8.91
2017-11-08T11:09:11.959Z,8.89
2017-11-08T11:10:12.859Z,8.88
2017-11-08T11:11:11.950Z,8.84
2017-11-08T11:12:11.971Z,8.87
2017-11-08T11:13:11.947Z,8.87
2017-11-08T11:14:11.292Z,8.87
2017-11-08T11:15:13.300Z,8.84
2017-11-08T11:16:11.942Z,8.84
2017-11-08T11:17:11.931Z,8.78
2017-11-08T11:18:11.946Z,8.81
2017-11-08T11:19:11.935Z,8.84
2017-11-08T11:20:12.400Z,8.78
2017-11-08T11:21:11.919Z,8.82
2017-11-08T11:22:12.711Z,8.89
2017-11-08T11:23:11.577Z,8.85
2017-11-08T11:24:11.571Z,8.87
2017-11-08T11:25:12.848Z,8.94
2017-11-08T11:26:11.569Z,8.76
2017-11-08T11:27:11.883Z,8.82
2017-11-08T11:28:11.562Z,8.89
2017-11-08T11:29:11.877Z,8.91
2017-11-08T11:30:13.061Z,8.88
2017-11-08T11:31:11.882Z,8.88
2017-11-08T11:32:11.544Z,8.89
2017-11-08T11:33:11.866Z,8.95
2017-11-08T11:34:11.872Z,8.94
2017-11-08T11:35:12.672Z,8.94
2017-11-08T11:36:11.523Z,8.94
2017-11-08T11:37:11.520Z,8.85
2017-11-08T11:38:11.838Z,8.89
2017-11-08T11:39:11.832Z,8.89
2017-11-08T11:40:12.531Z,8.91
2017-11-08T11:41:11.820Z,8.88
2017-11-08T11:42:11.816Z,8.79
2017-11-08T11:43:11.813Z,8.88
2017-11-08T11:44:11.811Z,8.85
2017-11-08T11:45:12.774Z,8.88
2017-11-08T11:46:11.814Z,8.91
2017-11-08T11:47:11.477Z,8.85
2017-11-08T11:48:11.468Z,8.92
2017-11-08T11:49:11.819Z,8.82
2017-11-08T11:50:12.120Z,8.81
2017-11-08T11:51:11.792Z,8.71
2017-11-08T11:52:11.446Z,8.76
2017-11-08T11:53:11.783Z,8.67
2017-11-08T11:54:11.764Z,8.66
2017-11-08T11:55:11.787Z,8.63
2017-11-08T11:56:11.756Z,8.66
2017-11-08T11:57:11.425Z,8.66
2017-11-08T11:58:11.440Z,8.6
2017-11-08T11:59:11.748Z,8.69
2017-11-08T12:00:12.920Z,8.69
2017-11-08T12:01:11.746Z,8.66
2017-11-08T12:02:11.740Z,8.67
2017-11-08T12:03:11.400Z,8.69
2017-11-08T12:04:11.394Z,8.64
2017-11-08T12:05:12.581Z,8.7
2017-11-08T12:06:11.396Z,8.67
2017-11-08T12:07:11.390Z,8.71
2017-11-08T12:08:11.369Z,8.66
2017-11-08T12:09:11.365Z,8.67
2017-11-08T12:10:12.335Z,8.67
2017-11-08T12:11:11.692Z,8.7
2017-11-08T12:12:12.474Z,8.69
2017-11-08T12:13:11.682Z,8.82
2017-11-08T12:14:11.135Z,8.66
2017-11-08T12:15:12.186Z,8.7
2017-11-08T12:16:11.450Z,8.67
2017-11-08T12:17:11.329Z,8.73
2017-11-08T12:18:11.660Z,8.78
2017-11-08T12:19:11.751Z,8.7
2017-11-08T12:20:12.317Z,8.69
2017-11-08T12:21:11.306Z,8.81
2017-11-08T12:22:11.667Z,8.7
2017-11-08T12:23:11.622Z,8.7
2017-11-08T12:24:11.291Z,8.71
2017-11-08T12:25:12.924Z,8.69
2017-11-08T12:26:11.593Z,8.69
2017-11-08T12:27:11.611Z,8.81
2017-11-08T12:28:10.957Z,8.74
2017-11-08T12:29:11.608Z,8.74
2017-11-08T12:30:14.530Z,8.71
2017-11-08T12:31:11.442Z,8.69
2017-11-08T12:32:11.256Z,8.74
2017-11-08T12:33:11.255Z,8.74
2017-11-08T12:34:11.588Z,8.74
2017-11-08T12:35:12.165Z,8.69
2017-11-08T12:36:11.250Z,8.7
2017-11-08T12:37:11.591Z,8.66
2017-11-08T12:38:11.562Z,8.66
2017-11-08T12:39:11.555Z,8.64
2017-11-08T12:40:12.502Z,8.69
2017-11-08T12:41:11.548Z,8.71
2017-11-08T12:42:11.552Z,8.7
2017-11-08T12:43:11.298Z,8.74
2017-11-08T12:44:11.532Z,8.74
2017-11-08T12:45:12.028Z,8.79
2017-11-08T12:46:11.191Z,8.71
2017-11-08T12:47:11.540Z,8.73
2017-11-08T12:48:11.180Z,8.74
2017-11-08T12:49:11.497Z,8.82
2017-11-08T12:50:11.784Z,8.74
2017-11-08T12:51:11.510Z,8.73
2017-11-08T12:52:11.507Z,8.73
2017-11-08T12:53:11.489Z,8.81
2017-11-08T12:54:11.485Z,8.78
2017-11-08T12:55:12.422Z,8.7
2017-11-08T12:56:11.142Z,8.69
2017-11-08T12:57:11.464Z,8.88
2017-11-08T12:58:11.137Z,8.69
2017-11-08T12:59:11.457Z,8.73
2017-11-08T13:00:12.513Z,8.87
2017-11-08T13:01:11.469Z,8.84
2017-11-08T13:02:11.455Z,8.79
2017-11-08T13:03:11.456Z,8.84
2017-11-08T13:04:11.436Z,8.85
2017-11-08T13:05:12.519Z,8.91
2017-11-08T13:06:11.409Z,8.82
2017-11-08T13:07:11.092Z,8.87
2017-11-08T13:08:11.081Z,8.89
2017-11-08T13:09:11.088Z,8.89
2017-11-08T13:10:12.051Z,8.87
2017-11-08T13:11:11.401Z,8.88
2017-11-08T13:12:11.065Z,8.88
2017-11-08T13:13:11.385Z,8.89
2017-11-08T13:14:11.382Z,8.85
2017-11-08T13:15:12.342Z,8.91
2017-11-08T13:16:11.373Z,8.92
2017-11-08T13:17:11.373Z,8.94
2017-11-08T13:18:11.387Z,8.89
2017-11-08T13:19:11.372Z,8.88
2017-11-08T13:20:12.100Z,8.88
2017-11-08T13:21:11.357Z,8.88
2017-11-08T13:22:10.696Z,8.85